CheckWX is a tool to help pilots better visualize weather data.  It is not intended as a substitute for an official pre-flight weather briefing.

03:42:47 UTC

LIVO METAR
Tarvisio Airport
Tarvisio, Italy
Current

10 hours ago

LIVO 171755Z 31005KT 9999 BKN025 07/03 Q1019 RMK BKN SCT060 VIS MIN 9999
Observed
Feb-17 @ 17:55 UTC
Wind
  • 310° at 5 KTS
Visibility
10,000+ meters
Flight Rules
MVFR
Cloud Levels
  • Broken at 2,500' AGL
Temperature
C / 45°F
Dewpoint
C / 37°F
Humidity
76%
Altimeter
30.09" Hg
Pressure
1018.92 hPa
Previous

11 hours ago

LIVO 171655Z 28007KT 9999 BKN025 07/03 Q1019 RMK BKN VIS MIN 9999
Observed
Feb-17 @ 16:55 UTC
Wind
  • 280° at 7 KTS
Visibility
10,000+ meters
Flight Rules
MVFR
Cloud Levels
  • Broken at 2,500' AGL
Temperature
C / 45°F
Dewpoint
C / 37°F
Humidity
76%
Altimeter
30.09" Hg
Pressure
1018.92 hPa
Previous

12 hours ago

LIVO 171555Z 27008KT 9999 BKN030 07/03 Q1019 RMK BKN VIS MIN 9999
Observed
Feb-17 @ 15:55 UTC
Wind
  • 270° at 8 KTS
Visibility
10,000+ meters
Flight Rules
MVFR
Cloud Levels
  • Broken at 3,000' AGL
Temperature
C / 45°F
Dewpoint
C / 37°F
Humidity
76%
Altimeter
30.09" Hg
Pressure
1018.92 hPa